Time;durP1;ratioP1;P1;durP2;ratioP2;P2;SDS_P1;SDS_P2;PMS_P1;PMS_P2;Temp;Humidity;BMP_temperature;BMP_pressure;BME280_temperature;BME280_humidity;BME280_pressure;Samples;Min_cycle;Max_cycle;Signal;HPM_P1;HPM_P2
2022/06/27 00:01:52;;;;;;;7.55;1.80;;;17.60;49.30;;;;;;4967066;28;20040;-75
2022/06/27 00:04:18;;;;;;;5.88;1.30;;;17.60;49.40;;;;;;4966795;28;20077;-75
2022/06/27 00:06:44;;;;;;;7.28;2.05;;;17.60;49.40;;;;;;4940235;28;20037;-75
2022/06/27 00:09:10;;;;;;;9.07;2.38;;;17.60;49.60;;;;;;4949652;28;20542;-74
2022/06/27 00:11:35;;;;;;;7.55;2.42;;;17.60;49.60;;;;;;4942541;28;20035;-75
2022/06/27 00:14:02;;;;;;;7.88;1.75;;;17.60;49.70;;;;;;4965870;28;20062;-74
2022/06/27 00:16:27;;;;;;;4.43;1.73;;;17.60;49.80;;;;;;4967855;28;20047;-75
2022/06/27 00:18:53;;;;;;;4.68;1.23;;;17.60;49.80;;;;;;4959560;28;20074;-74
2022/06/27 00:21:19;;;;;;;6.43;1.48;;;17.60;49.90;;;;;;4947317;28;20661;-74
2022/06/27 00:23:45;;;;;;;5.28;1.80;;;17.60;49.90;;;;;;4966986;28;20031;-74
2022/06/27 00:26:11;;;;;;;4.50;1.40;;;17.60;50.00;;;;;;4975039;28;20054;-74
2022/06/27 00:28:37;;;;;;;6.13;2.13;;;17.60;50.10;;;;;;4962944;28;20422;-75
2022/06/27 00:31:03;;;;;;;4.75;1.58;;;17.60;50.10;;;;;;4965719;28;20159;-75
2022/06/27 00:33:28;;;;;;;5.05;1.65;;;17.50;50.00;;;;;;4967844;28;20031;-75
2022/06/27 00:35:54;;;;;;;5.45;1.33;;;17.50;50.00;;;;;;4962602;28;20030;-76
2022/06/27 00:38:20;;;;;;;5.90;1.30;;;17.50;50.10;;;;;;4954674;28;20031;-75
2022/06/27 00:40:46;;;;;;;5.68;1.77;;;17.50;50.10;;;;;;4966464;28;20042;-73
2022/06/27 00:43:12;;;;;;;6.75;1.50;;;17.50;50.20;;;;;;4949791;28;20035;-73
2022/06/27 00:45:41;;;;;;;3.90;1.48;;;17.50;50.30;;;;;;4951435;28;20065;-72
2022/06/27 00:48:07;;;;;;;6.70;1.63;;;17.50;50.30;;;;;;4949185;28;20078;-73
2022/06/27 00:50:33;;;;;;;5.65;2.00;;;17.50;50.30;;;;;;4983067;28;20510;-73
2022/06/27 00:53:00;;;;;;;3.20;1.08;;;17.50;50.40;;;;;;4935928;28;20030;-73
2022/06/27 00:55:29;;;;;;;5.63;1.38;;;17.50;50.50;;;;;;4965367;28;20613;-73
2022/06/27 00:57:55;;;;;;;3.78;1.50;;;17.50;50.50;;;;;;4960365;28;20045;-73
2022/06/27 01:00:22;;;;;;;4.68;1.40;;;17.50;50.50;;;;;;4978666;28;20034;-73
2022/06/27 01:02:48;;;;;;;4.70;1.60;;;17.50;50.50;;;;;;4971730;28;20041;-73
2022/06/27 01:05:14;;;;;;;5.72;1.15;;;17.40;50.40;;;;;;4957791;28;20035;-73
2022/06/27 01:07:40;;;;;;;7.93;1.42;;;17.40;50.50;;;;;;4966227;28;20385;-73
2022/06/27 01:10:07;;;;;;;6.85;1.90;;;17.40;51.10;;;;;;4962365;28;20478;-73
2022/06/27 01:12:34;;;;;;;5.63;1.67;;;17.40;50.60;;;;;;4951437;28;20026;-75
2022/06/27 01:15:01;;;;;;;4.55;1.77;;;17.40;50.60;;;;;;4956473;28;20038;-75
2022/06/27 01:17:28;;;;;;;4.40;0.93;;;17.40;50.60;;;;;;4950001;28;20043;-75
2022/06/27 01:19:54;;;;;;;4.13;1.30;;;17.40;50.60;;;;;;4965028;28;20486;-72
2022/06/27 01:22:21;;;;;;;5.55;1.92;;;17.40;50.60;;;;;;4946015;28;20038;-74
2022/06/27 01:24:47;;;;;;;5.15;1.15;;;17.40;50.70;;;;;;4926688;29;20045;-73
2022/06/27 01:27:13;;;;;;;4.53;2.55;;;17.40;50.70;;;;;;4945372;28;20129;-75
2022/06/27 01:29:39;;;;;;;4.28;0.90;;;17.40;50.70;;;;;;4943352;28;20102;-74
2022/06/27 01:32:07;;;;;;;6.28;1.67;;;17.50;50.90;;;;;;4944264;28;20367;-74
2022/06/27 01:34:33;;;;;;;2.30;0.98;;;17.40;50.80;;;;;;4947981;28;20039;-74
2022/06/27 01:37:00;;;;;;;5.43;1.35;;;17.50;51.00;;;;;;4938651;28;20031;-74
2022/06/27 01:39:27;;;;;;;5.95;1.17;;;17.40;50.80;;;;;;4972797;28;20027;-74
2022/06/27 01:42:00;;;;;;;3.45;1.02;;;17.40;50.80;;;;;;4948506;28;20456;-74
2022/06/27 01:44:29;;;;;;;2.03;0.93;;;17.50;51.00;;;;;;4968432;28;20039;-73
2022/06/27 01:47:04;;;;;;;6.18;1.20;;;17.40;50.90;;;;;;4951501;28;20027;-73
2022/06/27 01:49:33;;;;;;;6.07;2.15;;;17.40;51.00;;;;;;4952551;28;20477;-74
2022/06/27 01:52:03;;;;;;;3.08;0.98;;;17.50;51.70;;;;;;4956403;28;20146;-74
2022/06/27 01:54:29;;;;;;;3.10;1.00;;;17.40;51.60;;;;;;4945707;28;20402;-74
2022/06/27 01:56:56;;;;;;;3.08;1.05;;;17.40;51.00;;;;;;4947205;28;20035;-74
2022/06/27 01:59:27;;;;;;;4.50;1.00;;;17.40;51.00;;;;;;4960004;28;20530;-73
2022/06/27 02:01:58;;;;;;;3.47;0.93;;;17.40;51.10;;;;;;4972224;28;21302;-73
2022/06/27 02:04:25;;;;;;;2.00;1.00;;;17.40;51.10;;;;;;4934617;28;20520;-73
2022/06/27 02:06:54;;;;;;;2.42;0.85;;;17.40;51.20;;;;;;4965015;28;20481;-73
2022/06/27 02:09:21;;;;;;;4.45;1.13;;;17.40;51.30;;;;;;4949220;28;20389;-73
2022/06/27 02:11:49;;;;;;;3.33;0.98;;;17.40;51.30;;;;;;4978840;28;20081;-74
2022/06/27 02:14:16;;;;;;;3.80;1.00;;;17.30;51.20;;;;;;4955555;28;20023;-73
2022/06/27 02:16:43;;;;;;;3.67;0.98;;;17.30;51.20;;;;;;4951572;28;20039;-73
2022/06/27 02:19:15;;;;;;;3.78;0.98;;;17.30;51.30;;;;;;4952429;28;20034;-73
2022/06/27 02:21:41;;;;;;;3.55;1.02;;;17.30;51.30;;;;;;4948048;28;20031;-73
2022/06/27 02:24:09;;;;;;;2.63;0.70;;;17.30;51.40;;;;;;4946732;28;20069;-73
2022/06/27 02:26:36;;;;;;;2.60;0.82;;;17.30;51.40;;;;;;4942065;28;20034;-73
2022/06/27 02:29:02;;;;;;;2.63;0.82;;;17.30;51.50;;;;;;4966565;28;20082;-73
2022/06/27 02:31:31;;;;;;;2.88;1.10;;;17.30;51.50;;;;;;4965635;28;20367;-73
2022/06/27 02:33:58;;;;;;;2.38;0.70;;;17.30;52.10;;;;;;4966945;28;20040;-73
2022/06/27 02:36:51;;;;;;;3.28;0.77;;;17.30;51.60;;;;;;4965642;28;20050;-73
2022/06/27 02:39:23;;;;;;;4.30;1.00;;;17.30;51.70;;;;;;4942395;28;20446;-73
2022/06/27 02:41:56;;;;;;;1.90;0.60;;;17.30;51.60;;;;;;4949616;28;20556;-73
2022/06/27 02:44:28;;;;;;;2.90;0.70;;;17.30;51.60;;;;;;4949507;28;20121;-73
2022/06/27 02:46:59;;;;;;;4.03;1.02;;;17.30;51.60;;;;;;4975599;28;20046;-73
2022/06/27 02:49:25;;;;;;;2.40;0.80;;;17.30;51.60;;;;;;4950545;28;20050;-73
2022/06/27 02:52:21;;;;;;;1.38;0.70;;;17.30;51.60;;;;;;4982125;28;20030;-73
2022/06/27 02:55:03;;;;;;;2.70;0.60;;;17.30;51.80;;;;;;4942984;28;20034;-73
2022/06/27 02:57:47;;;;;;;1.10;0.50;;;17.20;51.50;;;;;;4947935;28;20085;-73
2022/06/27 03:00:13;;;;;;;1.63;0.70;;;17.30;51.80;;;;;;4961213;28;20029;-73
2022/06/27 03:02:42;;;;;;;2.95;0.65;;;17.30;51.80;;;;;;4948062;28;20023;-74
2022/06/27 03:06:16;;;;;;;3.50;0.80;;;17.20;51.70;;;;;;4960003;28;20023;-73
2022/06/27 03:08:47;;;;;;;1.15;0.50;;;17.20;51.80;;;;;;4938732;28;20493;-73
2022/06/27 03:11:15;;;;;;;2.85;0.63;;;17.20;51.80;;;;;;4954966;28;20482;-74
2022/06/27 03:13:42;;;;;;;1.73;0.50;;;17.20;51.80;;;;;;4968204;28;20035;-74
2022/06/27 03:16:09;;;;;;;1.58;0.47;;;17.20;51.90;;;;;;4940668;28;20027;-74
2022/06/27 03:18:35;;;;;;;2.95;1.15;;;17.10;51.90;;;;;;4946973;28;20041;-75
2022/06/27 03:21:20;;;;;;;1.42;0.50;;;17.10;52.00;;;;;;4962176;28;20034;-74
2022/06/27 03:23:54;;;;;;;4.68;0.68;;;17.10;52.00;;;;;;4967096;28;20062;-74
2022/06/27 03:26:20;;;;;;;1.55;0.65;;;17.10;52.10;;;;;;4951394;28;20371;-74
2022/06/27 03:28:49;;;;;;;2.13;0.60;;;17.10;52.20;;;;;;4952754;28;20034;-74
2022/06/27 03:31:15;;;;;;;2.78;0.80;;;17.10;52.30;;;;;;4957258;28;20030;-74
2022/06/27 03:33:45;;;;;;;2.15;0.65;;;17.10;52.40;;;;;;4969862;28;20664;-74
2022/06/27 03:36:29;;;;;;;0.95;0.43;;;17.00;52.20;;;;;;4976442;28;20035;-73
2022/06/27 03:38:55;;;;;;;2.15;0.60;;;17.00;52.30;;;;;;4957435;28;20034;-74
2022/06/27 03:41:21;;;;;;;1.55;0.80;;;17.00;52.30;;;;;;4981050;28;20077;-74
2022/06/27 03:43:48;;;;;;;2.50;0.40;;;17.00;52.40;;;;;;4956151;28;20077;-74
2022/06/27 03:46:15;;;;;;;3.60;1.23;;;17.00;52.50;;;;;;4957499;28;20630;-74
2022/06/27 03:51:49;;;;;;;2.13;0.55;;;17.00;52.60;;;;;;4959288;28;20510;-74
2022/06/27 03:54:15;;;;;;;2.80;0.90;;;17.00;52.60;;;;;;4954002;28;20027;-75
2022/06/27 03:56:41;;;;;;;3.55;0.65;;;17.00;52.70;;;;;;4979653;28;20043;-73
2022/06/27 03:59:08;;;;;;;1.88;0.50;;;17.00;52.80;;;;;;4970799;28;20037;-74
2022/06/27 04:01:33;;;;;;;4.00;0.68;;;17.00;52.80;;;;;;4974536;28;20070;-74
2022/06/27 04:03:59;;;;;;;2.60;0.68;;;17.00;53.50;;;;;;4951394;28;20687;-73
2022/06/27 04:06:26;;;;;;;2.67;0.60;;;16.90;52.80;;;;;;4955136;28;20050;-74
2022/06/27 04:08:52;;;;;;;1.20;0.63;;;16.90;52.80;;;;;;4960602;28;20035;-74
2022/06/27 04:11:18;;;;;;;1.00;0.32;;;17.00;53.10;;;;;;4961102;28;20880;-74
2022/06/27 04:13:47;;;;;;;4.15;1.00;;;16.90;53.00;;;;;;4987267;28;20053;-74
2022/06/27 04:16:32;;;;;;;3.13;0.82;;;16.90;53.00;;;;;;4982435;28;20037;-73
2022/06/27 04:19:18;;;;;;;3.92;1.55;;;16.90;53.10;;;;;;4983115;28;20039;-73
2022/06/27 04:22:03;;;;;;;1.98;0.50;;;16.90;53.10;;;;;;4974045;28;20045;-73
2022/06/27 04:24:58;;;;;;;3.47;0.70;;;16.80;52.90;;;;;;4970285;28;20111;-73
2022/06/27 04:27:39;;;;;;;2.25;0.73;;;16.80;53.60;;;;;;4949576;28;20026;-72
2022/06/27 04:30:07;;;;;;;2.22;0.90;;;16.90;53.30;;;;;;4960918;28;20035;-73
2022/06/27 04:32:32;;;;;;;1.85;0.70;;;16.80;53.20;;;;;;4987324;28;20058;-73
2022/06/27 04:34:58;;;;;;;1.13;0.50;;;16.80;53.30;;;;;;4957441;28;20035;-73
2022/06/27 04:37:25;;;;;;;1.13;0.50;;;16.80;53.30;;;;;;4971719;28;20038;-73
2022/06/27 04:40:14;;;;;;;2.63;0.70;;;16.80;53.60;;;;;;4967791;28;20063;-73
2022/06/27 04:42:43;;;;;;;2.70;0.88;;;16.80;53.40;;;;;;4952963;28;20030;-73
2022/06/27 04:45:11;;;;;;;2.45;0.50;;;16.80;53.50;;;;;;4953077;28;20085;-73
2022/06/27 04:47:40;;;;;;;1.33;0.55;;;16.80;53.50;;;;;;4945886;28;20043;-73
2022/06/27 04:50:15;;;;;;;3.47;0.90;;;16.80;53.60;;;;;;4964684;28;20039;-73
2022/06/27 04:52:41;;;;;;;2.53;0.68;;;16.80;53.60;;;;;;4958106;28;20043;-74
2022/06/27 04:55:09;;;;;;;1.95;0.77;;;16.80;53.70;;;;;;4953165;28;20081;-74
2022/06/27 04:57:37;;;;;;;1.65;0.73;;;16.80;53.80;;;;;;4954801;28;20070;-74
2022/06/27 05:00:05;;;;;;;1.70;0.55;;;16.90;54.00;;;;;;4951276;28;20498;-73
2022/06/27 05:03:09;;;;;;;2.17;0.88;;;16.80;53.80;;;;;;4913253;29;20091;-73
2022/06/27 05:05:40;;;;;;;2.22;0.45;;;16.90;54.00;;;;;;4903996;29;20039;-73
2022/06/27 05:08:06;;;;;;;2.38;0.60;;;16.90;54.00;;;;;;4944436;28;20624;-74
2022/06/27 05:10:35;;;;;;;3.42;0.95;;;16.90;54.00;;;;;;4950837;28;20045;-73
2022/06/27 05:13:02;;;;;;;1.77;0.60;;;16.90;54.00;;;;;;4947404;28;20026;-73
2022/06/27 05:15:29;;;;;;;2.42;0.57;;;16.90;54.00;;;;;;4933576;28;20027;-73
2022/06/27 05:17:56;;;;;;;2.30;0.50;;;16.90;54.10;;;;;;4950709;28;20398;-73
2022/06/27 05:20:22;;;;;;;1.65;0.65;;;17.00;54.30;;;;;;4942397;28;20129;-73
2022/06/27 05:22:48;;;;;;;1.63;0.50;;;17.00;54.30;;;;;;4936264;28;20019;-74
2022/06/27 05:25:15;;;;;;;1.70;0.52;;;16.90;54.20;;;;;;4944712;28;20580;-74
2022/06/27 05:27:41;;;;;;;1.55;0.43;;;16.90;54.30;;;;;;4953862;28;20872;-74
2022/06/27 05:30:08;;;;;;;0.93;0.50;;;16.90;54.30;;;;;;4980357;28;20027;-74
2022/06/27 05:32:36;;;;;;;4.20;0.82;;;16.90;54.30;;;;;;4947868;28;20343;-74
2022/06/27 05:35:04;;;;;;;1.38;0.45;;;16.90;54.40;;;;;;4928705;28;20031;-74
2022/06/27 05:37:30;;;;;;;1.52;0.70;;;17.00;54.60;;;;;;4945901;28;20046;-75
2022/06/27 05:39:57;;;;;;;4.38;1.13;;;16.90;54.50;;;;;;4945775;28;20059;-73
2022/06/27 05:42:23;;;;;;;3.67;0.52;;;17.00;55.30;;;;;;4964077;28;20046;-74
2022/06/27 05:44:49;;;;;;;2.22;0.47;;;17.00;54.80;;;;;;4940984;28;20387;-74
2022/06/27 05:47:16;;;;;;;0.80;0.43;;;17.00;54.80;;;;;;4943483;28;20070;-74
2022/06/27 05:49:59;;;;;;;2.20;0.65;;;17.00;54.80;;;;;;4976124;28;20049;-74
2022/06/27 05:52:25;;;;;;;4.30;1.13;;;17.00;54.80;;;;;;4962286;28;20037;-74
2022/06/27 05:54:52;;;;;;;4.13;1.38;;;17.00;54.80;;;;;;4956647;28;20042;-74
2022/06/27 05:57:19;;;;;;;1.88;0.40;;;17.10;55.00;;;;;;4934368;28;20175;-74
2022/06/27 05:59:46;;;;;;;2.03;0.50;;;17.10;55.00;;;;;;4963928;28;20027;-74
2022/06/27 06:02:12;;;;;;;2.95;1.05;;;17.10;55.00;;;;;;4959067;28;20406;-74
2022/06/27 06:04:39;;;;;;;2.75;0.63;;;17.10;55.00;;;;;;4980271;28;20034;-75
2022/06/27 06:07:08;;;;;;;4.07;0.52;;;17.20;55.20;;;;;;4950419;28;20038;-75
2022/06/27 06:09:33;;;;;;;1.85;0.60;;;17.20;55.10;;;;;;4949352;28;20027;-76
2022/06/27 06:12:00;;;;;;;1.88;0.63;;;17.20;55.10;;;;;;4957259;28;20023;-75
2022/06/27 06:14:32;;;;;;;3.13;1.20;;;17.20;55.10;;;;;;4946413;28;20053;-76
2022/06/27 06:16:58;;;;;;;2.80;0.60;;;17.30;55.20;;;;;;4973761;28;20557;-76
2022/06/27 06:19:24;;;;;;;4.13;0.88;;;17.30;55.20;;;;;;4949392;28;20126;-76
2022/06/27 06:21:50;;;;;;;1.80;0.50;;;17.30;55.10;;;;;;4963975;28;20926;-76
2022/06/27 06:24:16;;;;;;;2.20;0.57;;;17.40;55.30;;;;;;4964085;28;20059;-76
2022/06/27 06:26:45;;;;;;;1.63;0.60;;;17.40;55.30;;;;;;4926448;29;20489;-76
2022/06/27 06:29:15;;;;;;;1.17;0.40;;;17.40;55.30;;;;;;4959549;28;20125;-75
2022/06/27 06:31:48;;;;;;;1.48;0.50;;;17.40;55.30;;;;;;4964123;28;20033;-76
2022/06/27 06:34:15;;;;;;;3.10;0.50;;;17.40;55.20;;;;;;4949793;28;20391;-76
2022/06/27 06:36:43;;;;;;;0.98;0.40;;;17.50;55.30;;;;;;4963394;28;20034;-76
2022/06/27 06:39:09;;;;;;;3.08;0.77;;;17.50;55.30;;;;;;4974388;28;20498;-76
2022/06/27 06:41:36;;;;;;;3.85;0.68;;;17.60;55.40;;;;;;4948469;28;20041;-76
2022/06/27 06:44:05;;;;;;;3.25;0.57;;;17.60;55.30;;;;;;4960839;28;20062;-76
2022/06/27 06:46:56;;;;;;;3.05;0.63;;;17.70;55.50;;;;;;4944407;28;20051;-76
2022/06/27 06:49:31;;;;;;;4.30;0.70;;;17.80;55.50;;;;;;4970997;28;20022;-76
2022/06/27 06:51:58;;;;;;;4.57;1.30;;;17.90;55.60;;;;;;4965901;28;20023;-76
2022/06/27 06:54:26;;;;;;;1.63;0.63;;;17.90;55.60;;;;;;4956493;28;20255;-77
2022/06/27 06:56:52;;;;;;;6.05;1.00;;;18.00;55.60;;;;;;4924861;28;20466;-76
2022/06/27 06:59:19;;;;;;;2.53;0.50;;;18.10;55.70;;;;;;4965382;28;20586;-77
2022/06/27 07:01:46;;;;;;;1.88;0.70;;;18.10;55.60;;;;;;4964289;28;20038;-74
2022/06/27 07:04:14;;;;;;;2.28;0.43;;;18.30;55.80;;;;;;4959959;28;20027;-74
2022/06/27 07:06:40;;;;;;;2.20;0.50;;;18.30;55.60;;;;;;4963061;28;20375;-75
2022/06/27 07:09:06;;;;;;;1.95;0.73;;;18.40;55.60;;;;;;4944780;28;20031;-74
2022/06/27 07:11:33;;;;;;;2.75;0.50;;;18.50;55.70;;;;;;4929227;28;20758;-74
2022/06/27 07:13:59;;;;;;;1.08;0.40;;;18.60;55.60;;;;;;4962312;28;20035;-74
2022/06/27 07:16:26;;;;;;;2.38;0.40;;;18.70;55.60;;;;;;4933798;28;20023;-77
2022/06/27 07:18:54;;;;;;;3.17;0.50;;;18.80;55.70;;;;;;4945449;28;20538;-77
2022/06/27 07:21:20;;;;;;;1.33;0.40;;;18.90;55.70;;;;;;4947095;28;20041;-76
2022/06/27 07:23:48;;;;;;;4.38;0.80;;;19.00;55.70;;;;;;4965118;28;20037;-76
2022/06/27 07:26:16;;;;;;;2.25;0.57;;;19.00;55.60;;;;;;4952102;28;20080;-76
2022/06/27 07:28:42;;;;;;;0.55;0.40;;;19.00;55.50;;;;;;4962774;28;20051;-76
2022/06/27 07:31:11;;;;;;;1.90;0.45;;;19.00;55.60;;;;;;4965229;28;20253;-76
2022/06/27 07:33:37;;;;;;;3.05;0.80;;;18.90;55.50;;;;;;4953519;28;20387;-76
2022/06/27 07:36:08;;;;;;;2.22;0.70;;;18.90;55.70;;;;;;4965331;28;20042;-76
2022/06/27 07:38:41;;;;;;;4.03;0.88;;;18.80;55.70;;;;;;4952434;28;20552;-75
2022/06/27 07:41:09;;;;;;;2.10;0.82;;;18.80;55.80;;;;;;4953549;28;20057;-75
2022/06/27 07:43:37;;;;;;;1.23;0.60;;;18.80;55.90;;;;;;4963961;28;20038;-74
2022/06/27 07:46:03;;;;;;;2.00;0.73;;;18.80;55.90;;;;;;4964599;28;20031;-73
2022/06/27 07:48:30;;;;;;;1.65;0.70;;;18.90;56.00;;;;;;4936452;28;20058;-73
2022/06/27 07:50:57;;;;;;;3.13;1.25;;;19.00;56.00;;;;;;4947119;28;20027;-75
2022/06/27 07:53:25;;;;;;;2.40;0.77;;;19.30;56.30;;;;;;4959371;28;20039;-74
2022/06/27 07:55:59;;;;;;;3.67;0.95;;;20.00;56.10;;;;;;4942536;28;20045;-74
2022/06/27 07:58:32;;;;;;;1.48;0.65;;;20.60;55.50;;;;;;4952939;28;20033;-75
2022/06/27 08:01:05;;;;;;;1.73;0.60;;;21.00;55.30;;;;;;4963494;28;20054;-75
2022/06/27 08:03:40;;;;;;;3.47;0.82;;;21.20;55.20;;;;;;4957013;28;20470;-74
2022/06/27 08:06:20;;;;;;;1.23;0.50;;;21.20;55.10;;;;;;4959904;28;20030;-75
2022/06/27 08:09:06;;;;;;;2.95;0.60;;;21.10;55.10;;;;;;4949841;28;20509;-74
2022/06/27 08:11:34;;;;;;;2.00;0.80;;;21.10;55.20;;;;;;4965113;28;20031;-76
2022/06/27 08:14:05;;;;;;;1.85;0.63;;;21.10;55.30;;;;;;4960918;28;20038;-73
2022/06/27 08:16:33;;;;;;;2.33;0.70;;;21.20;55.50;;;;;;4967975;28;20474;-74
2022/06/27 08:19:00;;;;;;;2.17;0.90;;;21.20;55.40;;;;;;4947180;28;20071;-75
2022/06/27 08:21:27;;;;;;;1.60;0.70;;;21.30;55.40;;;;;;4934199;28;20037;-75
2022/06/27 08:23:56;;;;;;;7.35;1.30;;;21.40;55.30;;;;;;4965294;28;20094;-74
2022/06/27 08:26:23;;;;;;;1.73;0.80;;;21.50;55.40;;;;;;4965040;28;20065;-74
2022/06/27 08:28:51;;;;;;;1.75;0.70;;;21.60;55.40;;;;;;4965433;28;20525;-75
2022/06/27 08:31:17;;;;;;;1.20;0.85;;;21.60;55.20;;;;;;4960129;28;20031;-75
2022/06/27 08:33:44;;;;;;;2.55;0.85;;;21.80;55.30;;;;;;4945552;28;20031;-74
2022/06/27 08:36:12;;;;;;;2.42;0.95;;;21.80;55.10;;;;;;4948666;28;20031;-75
2022/06/27 08:38:56;;;;;;;2.20;1.27;;;22.00;55.20;;;;;;4962236;28;20361;-74
2022/06/27 08:41:23;;;;;;;1.35;0.85;;;22.10;55.10;;;;;;4960288;28;20035;-74
2022/06/27 08:43:52;;;;;;;3.25;0.80;;;22.40;55.20;;;;;;4966063;28;20026;-74
2022/06/27 08:46:19;;;;;;;2.47;1.38;;;22.70;55.10;;;;;;4949881;28;20102;-74
2022/06/27 08:48:49;;;;;;;2.30;0.90;;;23.00;54.90;;;;;;4949409;28;20042;-74
2022/06/27 08:51:15;;;;;;;1.98;0.75;;;23.40;54.90;;;;;;4965109;28;20467;-75
2022/06/27 08:53:43;;;;;;;3.78;0.98;;;23.60;54.60;;;;;;4976597;28;20042;-74
2022/06/27 08:56:13;;;;;;;4.30;1.50;;;23.90;54.70;;;;;;4958402;28;20030;-75
2022/06/27 08:58:46;;;;;;;3.05;1.23;;;24.10;54.40;;;;;;4948652;28;20034;-74
2022/06/27 09:01:19;;;;;;;2.60;0.90;;;24.30;54.30;;;;;;4966105;28;20026;-74
2022/06/27 09:04:00;;;;;;;3.33;1.65;;;24.50;54.30;;;;;;4955406;28;20027;-74
2022/06/27 09:06:46;;;;;;;2.28;1.15;;;24.70;54.10;;;;;;4963574;28;20745;-75
2022/06/27 09:09:15;;;;;;;1.52;0.60;;;24.90;54.10;;;;;;4950178;28;20125;-75
2022/06/27 09:11:43;;;;;;;1.70;0.60;;;25.10;54.00;;;;;;4962963;28;20027;-74
2022/06/27 09:14:39;;;;;;;2.45;0.90;;;25.30;53.60;;;;;;4962208;28;20041;-74
2022/06/27 09:17:15;;;;;;;3.25;1.13;;;25.60;53.10;;;;;;4928210;28;20051;-74
2022/06/27 09:19:55;;;;;;;1.90;0.90;;;25.90;52.80;;;;;;4959940;28;20530;-75
2022/06/27 09:22:28;;;;;;;2.33;0.80;;;26.40;52.10;;;;;;4980920;28;20035;-75
2022/06/27 09:25:04;;;;;;;1.45;0.70;;;26.70;51.60;;;;;;4953165;28;20057;-74
2022/06/27 09:27:50;;;;;;;2.10;0.90;;;26.90;51.10;;;;;;4963561;28;20084;-75
2022/06/27 09:30:21;;;;;;;1.55;1.00;;;27.00;50.60;;;;;;4964402;28;20023;-75
2022/06/27 09:32:49;;;;;;;1.92;1.35;;;27.00;50.60;;;;;;4946575;28;20035;-75
2022/06/27 09:35:33;;;;;;;3.97;1.30;;;27.10;50.50;;;;;;4957082;28;20363;-77
2022/06/27 09:38:02;;;;;;;2.72;1.02;;;27.00;50.00;;;;;;4954946;28;20026;-76
2022/06/27 09:40:30;;;;;;;2.55;1.00;;;27.00;50.20;;;;;;4963821;28;21054;-76
2022/06/27 09:42:57;;;;;;;2.30;0.88;;;26.90;50.20;;;;;;4944164;28;20030;-76
2022/06/27 09:45:26;;;;;;;2.80;0.80;;;26.90;50.10;;;;;;4958028;28;20031;-77
2022/06/27 09:48:01;;;;;;;4.32;1.52;;;26.90;49.90;;;;;;4965984;28;20785;-74
2022/06/27 09:50:33;;;;;;;3.22;1.23;;;27.10;49.70;;;;;;4953579;28;20082;-75
2022/06/27 09:53:00;;;;;;;1.90;1.00;;;27.20;49.30;;;;;;4966232;28;20034;-74
2022/06/27 09:55:26;;;;;;;2.15;0.80;;;27.40;49.10;;;;;;4956629;28;20101;-75
2022/06/27 09:57:53;;;;;;;2.65;1.00;;;27.50;48.80;;;;;;4948415;28;20568;-74
2022/06/27 10:00:24;;;;;;;3.55;1.05;;;27.60;48.50;;;;;;4964290;28;20046;-75
2022/06/27 10:02:51;;;;;;;3.85;1.35;;;27.80;48.20;;;;;;4964854;28;20039;-75
2022/06/27 10:05:18;;;;;;;2.08;1.10;;;28.00;48.00;;;;;;4940700;28;20034;-76
2022/06/27 10:07:53;;;;;;;1.83;0.60;;;28.10;47.70;;;;;;4952799;28;20519;-75
2022/06/27 10:10:19;;;;;;;3.85;1.00;;;28.10;47.30;;;;;;4947110;28;20071;-75
2022/06/27 10:12:59;;;;;;;3.28;1.35;;;28.20;47.40;;;;;;4948923;28;20489;-76
2022/06/27 10:15:30;;;;;;;2.00;1.10;;;28.20;47.00;;;;;;4947430;28;20050;-74
2022/06/27 10:18:02;;;;;;;2.67;0.82;;;28.30;47.00;;;;;;4930763;28;20081;-75
2022/06/27 10:20:34;;;;;;;2.30;0.77;;;28.50;46.70;;;;;;4957858;28;20499;-75
2022/06/27 10:23:13;;;;;;;3.60;1.00;;;28.70;46.60;;;;;;4964903;28;20033;-74
2022/06/27 10:25:46;;;;;;;3.75;1.40;;;28.90;46.10;;;;;;4952721;28;20062;-75
2022/06/27 10:28:12;;;;;;;3.70;1.25;;;29.10;45.90;;;;;;4947438;28;20038;-75
2022/06/27 10:30:44;;;;;;;2.85;1.20;;;29.20;45.80;;;;;;4960461;28;20061;-75
2022/06/27 10:33:21;;;;;;;2.20;1.00;;;29.40;45.50;;;;;;4948146;28;20265;-74
2022/06/27 10:35:57;;;;;;;2.15;1.05;;;29.60;45.30;;;;;;4939390;28;20113;-74
2022/06/27 10:38:32;;;;;;;2.90;1.02;;;29.90;44.70;;;;;;4965175;28;20066;-75
2022/06/27 10:41:00;;;;;;;4.35;1.33;;;30.00;44.40;;;;;;4934138;28;20068;-75
2022/06/27 10:43:46;;;;;;;2.50;0.95;;;30.00;44.20;;;;;;4955323;28;20117;-76
2022/06/27 10:46:13;;;;;;;3.67;1.10;;;30.00;43.80;;;;;;4957959;28;20143;-75
2022/06/27 10:48:40;;;;;;;2.85;1.00;;;30.00;44.00;;;;;;4964917;28;20130;-76
2022/06/27 10:51:26;;;;;;;3.53;1.38;;;30.00;43.80;;;;;;4963977;28;20282;-75
2022/06/27 10:54:09;;;;;;;2.15;0.80;;;30.10;43.50;;;;;;4961625;28;20034;-76
2022/06/27 10:56:53;;;;;;;3.95;0.88;;;30.10;43.40;;;;;;4943617;28;20051;-75
2022/06/27 10:59:19;;;;;;;3.08;1.05;;;30.20;43.20;;;;;;4960562;28;20054;-75
2022/06/27 11:02:05;;;;;;;2.75;1.13;;;30.40;43.10;;;;;;4966086;28;20113;-75
2022/06/27 11:04:37;;;;;;;3.33;1.08;;;30.70;42.60;;;;;;4949367;28;20041;-75
2022/06/27 11:07:08;;;;;;;2.63;0.63;;;30.90;42.50;;;;;;4965786;28;20031;-75
2022/06/27 11:09:40;;;;;;;3.67;1.10;;;31.00;42.30;;;;;;4959860;28;20032;-75
2022/06/27 11:12:08;;;;;;;3.15;1.42;;;31.00;42.00;;;;;;4964712;28;20108;-75
2022/06/27 11:14:51;;;;;;;4.50;1.25;;;31.10;42.10;;;;;;4959843;28;20027;-75
2022/06/27 11:17:39;;;;;;;4.35;1.30;;;31.20;41.70;;;;;;4962293;28;20058;-75
2022/06/27 11:20:25;;;;;;;2.13;0.82;;;31.20;41.50;;;;;;4963172;28;20035;-76
2022/06/27 11:23:01;;;;;;;3.45;1.48;;;31.20;41.50;;;;;;4934070;28;20089;-75
2022/06/27 11:25:30;;;;;;;3.70;1.20;;;31.20;41.40;;;;;;4975750;28;20085;-75
2022/06/27 11:33:35;;;;;;;7.43;1.65;;;31.00;41.50;;;;;;4966043;28;20315;-76
2022/06/27 11:36:03;;;;;;;1.65;1.08;;;31.10;41.50;;;;;;4949291;28;20037;-81
2022/06/27 11:38:30;;;;;;;8.30;2.13;;;31.20;41.30;;;;;;4932209;28;20478;-77
2022/06/27 11:41:05;;;;;;;6.85;1.80;;;31.30;40.40;;;;;;4962394;28;20061;-76
2022/06/27 11:43:46;;;;;;;4.75;1.27;;;31.30;39.20;;;;;;4983348;28;20041;-76
2022/06/27 11:46:26;;;;;;;7.45;1.90;;;31.20;38.40;;;;;;4974692;28;20026;-76
2022/06/27 11:48:56;;;;;;;6.03;1.60;;;31.00;38.20;;;;;;4974341;28;20043;-76
2022/06/27 11:51:26;;;;;;;5.93;1.77;;;30.80;38.10;;;;;;4951735;28;20031;-76
2022/06/27 11:54:00;;;;;;;6.22;1.73;;;30.70;37.90;;;;;;4975876;28;20066;-76
2022/06/27 11:56:28;;;;;;;4.53;1.50;;;30.50;37.60;;;;;;4968263;28;20027;-76
2022/06/27 11:58:58;;;;;;;6.65;1.80;;;30.40;37.50;;;;;;4975715;28;20034;-76
2022/06/27 12:01:25;;;;;;;5.25;1.40;;;30.30;37.20;;;;;;4955987;28;20082;-76
2022/06/27 12:04:10;;;;;;;3.60;1.58;;;30.10;37.20;;;;;;4970819;28;20026;-76
2022/06/27 12:06:52;;;;;;;6.32;1.20;;;29.80;36.80;;;;;;4990259;28;20058;-77
2022/06/27 12:09:20;;;;;;;5.22;1.20;;;29.70;36.90;;;;;;4967302;28;20059;-75
2022/06/27 12:11:48;;;;;;;3.90;1.30;;;29.60;37.00;;;;;;4971529;28;20146;-75
2022/06/27 12:14:14;;;;;;;3.45;1.05;;;29.70;36.80;;;;;;4969916;28;20033;-75
2022/06/27 12:16:52;;;;;;;3.47;1.10;;;29.60;36.50;;;;;;4969873;28;20027;-75
2022/06/27 12:19:18;;;;;;;5.90;0.98;;;29.30;36.40;;;;;;4971770;28;20039;-75
2022/06/27 12:21:45;;;;;;;3.42;0.90;;;29.10;36.70;;;;;;4966747;28;20030;-75
2022/06/27 12:24:12;;;;;;;4.55;1.10;;;29.00;36.70;;;;;;4959115;28;20299;-75
2022/06/27 12:26:38;;;;;;;5.50;0.90;;;28.90;36.40;;;;;;4965080;28;20113;-75
2022/06/27 12:29:05;;;;;;;2.80;0.80;;;28.90;36.30;;;;;;4967749;28;20698;-74
2022/06/27 12:31:36;;;;;;;2.65;1.05;;;28.90;36.10;;;;;;4967632;28;20062;-75
2022/06/27 12:34:03;;;;;;;4.53;1.13;;;28.80;35.70;;;;;;4950859;28;20269;-74
2022/06/27 12:36:31;;;;;;;3.75;1.10;;;28.70;35.70;;;;;;4966624;28;20038;-75
2022/06/27 12:39:01;;;;;;;4.05;1.05;;;28.70;35.60;;;;;;4949282;28;20042;-75
2022/06/27 12:41:27;;;;;;;3.42;1.02;;;28.80;35.40;;;;;;4981781;28;20121;-76
2022/06/27 12:43:54;;;;;;;5.70;1.17;;;28.80;35.90;;;;;;4961998;28;20483;-75
2022/06/27 12:46:20;;;;;;;4.70;1.13;;;28.80;35.10;;;;;;4956545;28;20073;-75
2022/06/27 12:48:47;;;;;;;3.90;1.02;;;28.80;35.00;;;;;;4949103;28;20322;-75
2022/06/27 12:51:13;;;;;;;3.97;0.90;;;28.90;35.00;;;;;;4968163;28;20031;-75
2022/06/27 12:53:39;;;;;;;6.07;1.27;;;28.80;34.90;;;;;;4951039;28;20022;-75
2022/06/27 12:56:07;;;;;;;7.35;1.70;;;28.80;34.80;;;;;;4960094;28;20077;-75
2022/06/27 12:58:34;;;;;;;3.28;1.10;;;28.90;34.70;;;;;;4966412;28;20478;-75
2022/06/27 13:01:00;;;;;;;5.35;1.30;;;28.90;34.90;;;;;;4963968;28;20121;-76
2022/06/27 13:03:27;;;;;;;6.13;1.10;;;28.80;34.80;;;;;;4966664;28;20034;-75
2022/06/27 13:05:53;;;;;;;5.63;1.67;;;28.90;34.90;;;;;;4981074;28;20249;-76
2022/06/27 13:08:19;;;;;;;3.22;1.08;;;28.90;34.90;;;;;;4956401;28;20084;-75
2022/06/27 13:10:45;;;;;;;4.45;1.30;;;28.90;34.80;;;;;;4955813;28;20090;-75
2022/06/27 13:13:11;;;;;;;4.53;1.00;;;29.00;34.70;;;;;;4961880;28;20086;-74